NCAR-RAP Real-Time Weather Data

Output produced by METARs form (12 August 2020  18:00 UTC)
found at http://weather.rap.ucar.edu/surface/
 
KSTC 121753Z 13010KT 10SM FEW090 19/16 A2998 RMK AO2 RAE00 SLP159 P0000 60024 T01940161 10194 20161 56026
KSTC 121653Z 12010G17KT 10SM -RA FEW046 SCT075 SCT120 17/16 A2999 RMK AO2 SLP164 P0004 T01720161
KSTC 121618Z 14013KT 10SM -RA BKN110 17/16 A2997 RMK AO2 LTG DSNT NE AND E PRESRR P0003 T01720161
KSTC 121553Z 09011KT 9SM VCTS -RA OVC110 17/16 A2996 RMK AO2 LTG DSNT NE-S PRESFR SLP152 P0015 T01720161
KSTC 121541Z 09009G18KT 9SM VCTS -RA OVC110 17/16 A2998 RMK AO2 LTG DSNT N AND S AND W P0014 T01720161
KSTC 121453Z 11005KT 3SM RA BR FEW049 BKN080 OVC110 17/16 A3006 RMK AO2 LTG DSNT SE TSB1355E08 SLP186 LTGN DST W NW TS B1350 TS W-NW MOV W P0005 60005 T01670161 50028
KSTC 121442Z 00000KT 6SM RA BR FEW050 BKN080 OVC120 17/16 A3007 RMK AO2 LTG DSNT SW AND W TSB1355E08 LTGN DST W NW TS B1350 TS W-NW MOV W P0002 T01670156
KSTC 121414Z 00000KT 10SM VCTS -RA FEW031 BKN046 BKN070 17/16 A3008 RMK AO2 LTG DSNT S-NW TSB1355E08 LTGN DST W NW TS B1350 TS W-NW MOV W P0000 T01720156
KSTC 121400Z 26004KT 10SM -TSRA FEW031 BKN048 BKN075 17/15 A3009 RMK AO2 TSB1355 LTGN DST W NW TS B1350 TS W-NW MOV W P0000 T01720150
KSTC 121356Z 27004KT 10SM -TSRA BKN048 BKN075 17/15 A3009 RMK AO2 TSB55 LTGN DST W NW TS B1350 TS W-NW MOV W P0000 T01720150
KSTC 121353Z 27004KT 10SM -RA BKN048 BKN075 17/15 A3008 RMK AO2 RAB51 SLP192 P0000 T01720150
KSTC 121253Z 00000KT 10SM CLR 18/15 A2998 RMK AO2 SLP157 T01780150
KSTC 121153Z 11006KT 10SM CLR 16/14 A2997 RMK AO2 SLP154 T01610139 10172 20139 58012
KSTC 121053Z AUTO 11004KT 10SM CLR 15/13 A3000 RMK AO2 SLP164 T01500133 TSNO
KSTC 120953Z AUTO 12005KT 10SM CLR 16/13 A3000 RMK AO2 SLP162 T01560133 TSNO
KSTC 120853Z AUTO 13003KT 10SM CLR 16/14 A3001 RMK AO2 SLP167 T01560139 55000
KSTC 120753Z AUTO 13005KT 10SM CLR 15/14 A3000 RMK AO2 SLP164 T01500139
KSTC 120653Z AUTO 14003KT 10SM CLR 14/14 A3000 RMK AO2 SLP164 T01440139
KSTC 120553Z AUTO 14003KT 10SM CLR 15/14 A3001 RMK AO2 SLP167 T01500144 10244 20150 402830111 51015
KSTC 120453Z AUTO 00000KT 10SM CLR 17/15 A3000 RMK AO2 SLP165 T01670150
KSTC 120353Z 14004KT 10SM CLR 18/16 A2998 RMK AO2 SLP155 T01830156
KSTC 120253Z 14004KT 10SM CLR 19/16 A2997 RMK AO2 SLP152 T01890161 53008
KSTC 120153Z 00000KT 10SM CLR 22/17 A2995 RMK AO2 SLP146 T02170167
KSTC 120053Z 14003KT 10SM FEW110 24/16 A2994 RMK AO2 SLP145 T02390161
KSTC 112353Z 18005KT 10SM CLR 24/15 A2994 RMK AO2 SLP146 T02440150 10283 20244 56006
KSTC 112253Z 21006KT 10SM CLR 27/14 A2995 RMK AO2 SLP146 T02670139
KSTC 112153Z 21008KT 10SM CLR 27/14 A2995 RMK AO2 SLP148 T02670139